Time;durP1;ratioP1;P1;durP2;ratioP2;P2;SDS_P1;SDS_P2;PMS_P1;PMS_P2;Temp;Humidity;BMP_temperature;BMP_pressure;BME280_temperature;BME280_humidity;BME280_pressure;Samples;Min_cycle;Max_cycle;Signal;HPM_P1;HPM_P2
2022/03/15 00:00:46;;;;;;;14.90;8.52;;;2.70;99.90;;;;;;5108492;28;20050;-67
2022/03/15 00:03:12;;;;;;;17.35;9.38;;;2.70;99.90;;;;;;5111876;28;20027;-67
2022/03/15 00:05:38;;;;;;;19.45;10.25;;;2.70;99.90;;;;;;5130916;28;20088;-67
2022/03/15 00:08:05;;;;;;;27.23;11.80;;;2.70;99.90;;;;;;5112385;28;20441;-67
2022/03/15 00:10:31;;;;;;;32.60;12.77;;;2.80;99.90;;;;;;5106868;28;20031;-67
2022/03/15 00:12:57;;;;;;;30.75;13.35;;;2.80;99.90;;;;;;5130570;28;20043;-67
2022/03/15 00:15:24;;;;;;;27.70;12.35;;;2.80;99.90;;;;;;5112147;28;20076;-67
2022/03/15 00:17:50;;;;;;;30.98;13.18;;;2.70;99.90;;;;;;5111991;28;20043;-67
2022/03/15 00:20:21;;;;;;;31.65;13.70;;;2.80;99.90;;;;;;5111745;27;20047;-67
2022/03/15 00:22:47;;;;;;;28.77;12.68;;;2.80;99.90;;;;;;5116352;27;20047;-67
2022/03/15 00:25:17;;;;;;;30.63;13.63;;;2.70;99.90;;;;;;5105393;27;20042;-67
2022/03/15 00:27:47;;;;;;;29.00;13.27;;;2.70;99.90;;;;;;5099052;27;20082;-67
2022/03/15 00:30:14;;;;;;;27.13;13.43;;;2.70;99.90;;;;;;5107904;27;20031;-67
2022/03/15 00:32:41;;;;;;;32.17;14.18;;;2.70;99.90;;;;;;5098865;27;20406;-67
2022/03/15 00:35:12;;;;;;;35.30;13.65;;;2.70;99.90;;;;;;5104607;27;20045;-67
2022/03/15 00:37:38;;;;;;;30.58;13.50;;;2.70;99.90;;;;;;5114076;27;20050;-67
2022/03/15 00:40:05;;;;;;;32.03;14.85;;;2.70;99.90;;;;;;5115902;27;20031;-67
2022/03/15 00:42:30;;;;;;;32.33;13.93;;;2.70;99.90;;;;;;5115756;27;20051;-67
2022/03/15 00:45:01;;;;;;;36.72;15.60;;;2.70;99.90;;;;;;5122698;27;20049;-67
2022/03/15 00:47:27;;;;;;;34.60;15.57;;;2.80;99.90;;;;;;5114564;27;20039;-67
2022/03/15 00:49:53;;;;;;;40.83;14.48;;;2.80;99.90;;;;;;5114533;27;20489;-66
2022/03/15 00:52:18;;;;;;;38.40;14.80;;;2.90;99.90;;;;;;5098218;27;20088;-67
2022/03/15 00:54:44;;;;;;;38.13;15.45;;;3.00;99.90;;;;;;5106209;27;20043;-66
2022/03/15 00:57:10;;;;;;;38.67;16.10;;;3.00;99.90;;;;;;5113186;27;20047;-67
2022/03/15 00:59:36;;;;;;;42.33;15.82;;;3.10;99.90;;;;;;5112582;27;20054;-67
2022/03/15 01:02:02;;;;;;;40.38;15.45;;;3.20;99.90;;;;;;5114057;27;20389;-67
2022/03/15 01:04:28;;;;;;;43.13;15.75;;;3.20;99.90;;;;;;5113649;27;20478;-67
2022/03/15 01:06:53;;;;;;;43.40;15.55;;;3.30;99.90;;;;;;5114759;27;20038;-67
2022/03/15 01:09:19;;;;;;;46.78;17.27;;;3.30;99.90;;;;;;5114054;27;20037;-67
2022/03/15 01:11:44;;;;;;;41.88;15.70;;;3.40;99.90;;;;;;5114699;27;20057;-67
2022/03/15 01:14:11;;;;;;;43.45;15.95;;;3.30;99.90;;;;;;5108683;27;20063;-67
2022/03/15 01:16:37;;;;;;;45.58;17.20;;;3.40;99.90;;;;;;5114708;27;20035;-68
2022/03/15 01:19:06;;;;;;;47.42;17.48;;;3.40;99.90;;;;;;5112513;27;20117;-67
2022/03/15 01:21:34;;;;;;;47.80;16.70;;;3.40;99.90;;;;;;5112617;27;20035;-68
2022/03/15 01:24:00;;;;;;;44.67;15.68;;;3.40;99.90;;;;;;5132872;27;20473;-68
2022/03/15 01:26:26;;;;;;;43.20;15.48;;;3.50;99.90;;;;;;5110803;27;20046;-67
2022/03/15 01:28:52;;;;;;;38.60;15.63;;;3.50;99.90;;;;;;5115287;27;20089;-68
2022/03/15 01:31:17;;;;;;;43.67;17.23;;;3.60;99.90;;;;;;5112795;27;20129;-67
2022/03/15 01:33:43;;;;;;;49.22;17.05;;;3.60;99.90;;;;;;5111084;27;20070;-68
2022/03/15 01:36:09;;;;;;;43.50;17.50;;;3.60;99.90;;;;;;5112536;27;20063;-67
2022/03/15 01:38:35;;;;;;;45.92;18.80;;;3.70;99.90;;;;;;5132362;27;20194;-67
2022/03/15 01:41:01;;;;;;;60.80;20.20;;;3.80;99.90;;;;;;5114433;27;20110;-68
2022/03/15 01:43:27;;;;;;;46.70;19.02;;;3.80;99.90;;;;;;5113660;27;20043;-68
2022/03/15 01:45:53;;;;;;;53.10;19.80;;;3.80;99.90;;;;;;5113795;27;20095;-68
2022/03/15 01:48:20;;;;;;;48.20;18.67;;;3.90;99.90;;;;;;5112756;27;20043;-68
2022/03/15 01:50:46;;;;;;;48.05;20.25;;;3.90;99.90;;;;;;5109190;27;20035;-68
2022/03/15 01:53:14;;;;;;;52.88;21.00;;;3.90;99.90;;;;;;5113239;27;20549;-68
2022/03/15 01:55:39;;;;;;;63.75;21.65;;;3.90;99.90;;;;;;5113914;27;20047;-68
2022/03/15 01:58:05;;;;;;;61.72;22.23;;;4.00;99.90;;;;;;5113445;27;20069;-68
2022/03/15 02:00:31;;;;;;;54.15;21.33;;;4.00;99.90;;;;;;5114169;27;20053;-68
2022/03/15 02:02:57;;;;;;;52.13;21.10;;;4.00;99.90;;;;;;5114597;27;20053;-68
2022/03/15 02:05:23;;;;;;;48.42;19.65;;;4.00;99.90;;;;;;5112407;27;20039;-68
2022/03/15 02:07:48;;;;;;;44.10;17.88;;;4.00;99.90;;;;;;5113939;27;20198;-68
2022/03/15 02:10:14;;;;;;;46.33;17.75;;;3.90;99.90;;;;;;5109866;27;20537;-68
2022/03/15 02:12:39;;;;;;;54.92;20.95;;;3.90;99.90;;;;;;5111469;27;20047;-68
2022/03/15 02:15:06;;;;;;;54.17;19.92;;;3.80;99.90;;;;;;5112490;27;20042;-68
2022/03/15 02:17:32;;;;;;;47.95;18.83;;;3.80;99.90;;;;;;5109352;27;20039;-68
2022/03/15 02:19:58;;;;;;;47.75;19.75;;;3.80;99.90;;;;;;5112628;27;20072;-68
2022/03/15 02:22:24;;;;;;;51.05;21.05;;;3.80;99.90;;;;;;5112797;27;20056;-68
2022/03/15 02:24:50;;;;;;;58.75;20.60;;;3.80;99.90;;;;;;5110474;27;20027;-68
2022/03/15 02:27:15;;;;;;;52.72;18.92;;;3.80;99.90;;;;;;5131501;27;20034;-68
2022/03/15 02:29:41;;;;;;;43.38;17.10;;;3.70;99.90;;;;;;5112637;27;20504;-68
2022/03/15 02:32:07;;;;;;;36.13;16.65;;;3.80;99.90;;;;;;5106170;27;20130;-68
2022/03/15 02:34:33;;;;;;;39.88;16.95;;;3.70;99.90;;;;;;5113633;27;20038;-68
2022/03/15 02:36:59;;;;;;;45.55;19.05;;;3.70;99.90;;;;;;5112955;27;20050;-68
2022/03/15 02:39:25;;;;;;;56.50;20.55;;;3.60;99.90;;;;;;5131214;27;20047;-68
2022/03/15 02:41:50;;;;;;;60.78;21.52;;;3.60;99.90;;;;;;5111814;27;20458;-68
2022/03/15 02:44:16;;;;;;;57.85;20.55;;;3.60;99.90;;;;;;5130768;27;20038;-68
2022/03/15 02:46:42;;;;;;;57.53;19.73;;;3.60;99.90;;;;;;5112647;27;20031;-68
2022/03/15 02:49:09;;;;;;;49.88;16.40;;;3.60;99.90;;;;;;5105757;27;20035;-68
2022/03/15 02:51:35;;;;;;;48.53;17.77;;;3.50;99.90;;;;;;5106330;27;20450;-68
2022/03/15 02:54:07;;;;;;;43.00;16.70;;;3.40;99.90;;;;;;5111541;27;20542;-68
2022/03/15 02:56:36;;;;;;;61.53;20.60;;;3.30;99.90;;;;;;5112991;27;20512;-69
2022/03/15 02:59:03;;;;;;;45.63;18.08;;;3.20;99.90;;;;;;5105194;27;20292;-69
2022/03/15 03:01:28;;;;;;;49.45;17.42;;;3.20;99.90;;;;;;5108240;27;20031;-69
2022/03/15 03:03:54;;;;;;;54.53;19.92;;;3.20;99.90;;;;;;5112753;27;20035;-69
2022/03/15 03:06:19;;;;;;;50.97;19.65;;;3.20;99.90;;;;;;5113027;27;20359;-68
2022/03/15 03:08:45;;;;;;;53.90;18.00;;;3.10;99.90;;;;;;5112859;27;20091;-68
2022/03/15 03:11:10;;;;;;;35.22;15.07;;;3.20;99.90;;;;;;5111779;27;20175;-68
2022/03/15 03:13:37;;;;;;;43.80;15.05;;;3.10;99.90;;;;;;5112182;27;20035;-68
2022/03/15 03:16:05;;;;;;;34.47;13.07;;;3.10;99.90;;;;;;5112296;27;20093;-68
2022/03/15 03:18:34;;;;;;;36.30;13.85;;;3.20;99.90;;;;;;5111804;27;20071;-69
2022/03/15 03:21:01;;;;;;;43.55;16.08;;;3.20;99.90;;;;;;5105786;27;20059;-69
2022/03/15 03:23:28;;;;;;;40.95;16.48;;;3.20;99.90;;;;;;5109420;27;20047;-69
2022/03/15 03:25:56;;;;;;;44.33;17.38;;;3.20;99.90;;;;;;5111897;27;20126;-69
2022/03/15 03:28:25;;;;;;;65.20;20.13;;;3.20;99.90;;;;;;5112099;27;20035;-69
2022/03/15 03:30:50;;;;;;;72.47;21.98;;;3.20;99.90;;;;;;5113353;27;20107;-69
2022/03/15 03:33:19;;;;;;;67.32;21.63;;;3.20;99.90;;;;;;5113418;27;20428;-69
2022/03/15 03:35:45;;;;;;;47.38;19.08;;;3.20;99.90;;;;;;5107069;27;20081;-69
2022/03/15 03:38:12;;;;;;;41.03;18.42;;;3.20;99.90;;;;;;5094974;27;20066;-69
2022/03/15 03:40:37;;;;;;;32.10;14.73;;;3.20;99.90;;;;;;5111379;27;20039;-69
2022/03/15 03:43:04;;;;;;;40.33;17.58;;;3.20;99.90;;;;;;5112842;27;20035;-69
2022/03/15 03:45:29;;;;;;;32.67;13.68;;;3.20;99.90;;;;;;5112417;27;20039;-69
2022/03/15 03:47:55;;;;;;;28.25;11.52;;;3.20;99.90;;;;;;5112619;28;20084;-69
2022/03/15 03:50:21;;;;;;;32.55;12.98;;;3.20;99.90;;;;;;5110072;27;20031;-69
2022/03/15 03:52:47;;;;;;;34.03;13.18;;;3.20;99.90;;;;;;5112497;27;20035;-69
2022/03/15 03:55:12;;;;;;;40.13;13.80;;;3.10;99.90;;;;;;5110481;28;20078;-69
2022/03/15 03:57:38;;;;;;;51.17;18.85;;;2.90;99.90;;;;;;5110087;28;20393;-69
2022/03/15 04:00:07;;;;;;;63.92;20.73;;;2.90;99.90;;;;;;5110595;28;20170;-69
2022/03/15 04:02:32;;;;;;;60.90;19.13;;;3.00;99.90;;;;;;5103619;27;20402;-69
2022/03/15 04:04:58;;;;;;;65.13;17.73;;;3.00;99.90;;;;;;5097326;27;20035;-69
2022/03/15 04:07:24;;;;;;;46.40;16.55;;;3.00;99.90;;;;;;5103138;28;20050;-69
2022/03/15 04:09:50;;;;;;;56.85;19.42;;;3.00;99.90;;;;;;5111174;28;20043;-69
2022/03/15 04:12:19;;;;;;;44.88;16.02;;;3.00;99.90;;;;;;5110220;28;20162;-69
2022/03/15 04:14:46;;;;;;;48.08;16.80;;;3.00;99.90;;;;;;5107268;28;20115;-69
2022/03/15 04:17:11;;;;;;;60.30;20.75;;;3.10;99.90;;;;;;5108692;28;20046;-69
2022/03/15 04:19:37;;;;;;;49.55;18.10;;;3.10;99.90;;;;;;5111457;28;20039;-69
2022/03/15 04:22:03;;;;;;;46.92;19.38;;;3.10;99.90;;;;;;5114733;27;20485;-69
2022/03/15 04:24:28;;;;;;;52.80;18.67;;;3.20;99.90;;;;;;5111453;28;20397;-69
2022/03/15 04:26:54;;;;;;;62.20;21.15;;;3.20;99.90;;;;;;5128371;27;20039;-69
2022/03/15 04:29:21;;;;;;;51.40;19.90;;;3.30;99.90;;;;;;5101422;28;20459;-69
2022/03/15 04:31:46;;;;;;;43.22;17.08;;;3.40;99.90;;;;;;5106487;28;20038;-69
2022/03/15 04:34:12;;;;;;;55.10;19.40;;;3.40;99.90;;;;;;5130040;28;20050;-69
2022/03/15 04:36:40;;;;;;;57.03;20.30;;;3.40;99.90;;;;;;5111228;28;20038;-70
2022/03/15 04:39:06;;;;;;;60.28;22.23;;;3.40;99.90;;;;;;5110693;28;20119;-69
2022/03/15 04:41:32;;;;;;;57.38;20.08;;;3.40;99.90;;;;;;5111493;28;20503;-69
2022/03/15 04:43:58;;;;;;;56.38;21.98;;;3.40;99.90;;;;;;5103675;27;20035;-69
2022/03/15 04:46:24;;;;;;;54.67;20.88;;;3.50;99.90;;;;;;5103007;28;20474;-69
2022/03/15 04:48:50;;;;;;;62.25;22.70;;;3.60;99.90;;;;;;5111327;28;20039;-69
2022/03/15 04:51:15;;;;;;;55.92;21.38;;;3.50;99.90;;;;;;5111296;28;20050;-69
2022/03/15 04:53:41;;;;;;;57.97;20.77;;;3.50;99.90;;;;;;5111194;28;20046;-69
2022/03/15 04:56:07;;;;;;;60.88;22.98;;;3.50;99.90;;;;;;5111931;28;20039;-69
2022/03/15 04:58:33;;;;;;;71.18;24.67;;;3.50;99.90;;;;;;5111487;28;20139;-69
2022/03/15 05:00:58;;;;;;;62.80;24.17;;;3.50;99.90;;;;;;5112855;28;20509;-69
2022/03/15 05:03:24;;;;;;;60.08;24.73;;;3.50;99.90;;;;;;5111728;28;20437;-69
2022/03/15 05:05:50;;;;;;;66.60;25.95;;;3.50;99.90;;;;;;5112547;28;20143;-69
2022/03/15 05:08:15;;;;;;;70.82;26.38;;;3.60;99.90;;;;;;5115315;27;20035;-69
2022/03/15 05:13:26;;;;;;;68.45;27.58;;;3.50;99.90;;;;;;5109068;27;20054;-69
2022/03/15 05:15:52;;;;;;;78.00;28.85;;;3.60;99.90;;;;;;5108703;27;20456;-69
2022/03/15 05:18:18;;;;;;;82.82;29.08;;;3.60;99.90;;;;;;5108673;27;20565;-69
2022/03/15 05:20:43;;;;;;;73.57;28.92;;;3.60;99.90;;;;;;5108541;27;20126;-69
2022/03/15 05:23:09;;;;;;;80.70;30.05;;;3.60;99.90;;;;;;5115949;27;20035;-69
2022/03/15 05:25:34;;;;;;;85.30;30.08;;;3.60;99.90;;;;;;5114475;27;20042;-69
2022/03/15 05:28:00;;;;;;;84.45;31.73;;;3.60;99.90;;;;;;5115625;27;20453;-69
2022/03/15 05:30:25;;;;;;;91.72;30.92;;;3.70;99.90;;;;;;5114153;27;20046;-69
2022/03/15 05:32:51;;;;;;;85.10;30.23;;;3.70;99.90;;;;;;5098876;27;20066;-69
2022/03/15 05:35:16;;;;;;;84.53;29.70;;;3.70;99.90;;;;;;5115545;27;20049;-69
2022/03/15 05:37:42;;;;;;;88.20;30.48;;;3.70;99.90;;;;;;5116583;27;20051;-69
2022/03/15 05:40:09;;;;;;;92.53;32.25;;;3.70;99.90;;;;;;5114569;27;20581;-69
2022/03/15 05:42:35;;;;;;;90.60;32.00;;;3.70;99.90;;;;;;5108547;27;20123;-69
2022/03/15 05:45:01;;;;;;;83.45;31.63;;;3.70;99.90;;;;;;5115572;27;20082;-69
2022/03/15 05:47:27;;;;;;;97.35;33.58;;;3.80;99.90;;;;;;5113610;27;20031;-69
2022/03/15 05:49:52;;;;;;;90.38;33.47;;;3.70;99.90;;;;;;5114279;27;20465;-69
2022/03/15 05:52:18;;;;;;;89.28;32.55;;;3.80;99.90;;;;;;5108303;27;20474;-69
2022/03/15 05:54:43;;;;;;;90.57;31.77;;;3.80;99.90;;;;;;5102687;27;20393;-69
2022/03/15 05:57:09;;;;;;;93.75;33.50;;;3.80;99.90;;;;;;5114317;27;20078;-69
2022/03/15 05:59:34;;;;;;;89.15;33.17;;;3.90;99.90;;;;;;5114043;27;20511;-69
2022/03/15 06:02:00;;;;;;;94.93;34.20;;;3.90;99.90;;;;;;5105691;27;20035;-69
2022/03/15 06:04:26;;;;;;;106.25;35.08;;;3.90;99.90;;;;;;5113417;27;20595;-69
2022/03/15 06:06:55;;;;;;;104.00;36.05;;;3.90;99.90;;;;;;5114906;27;20043;-69
2022/03/15 06:09:22;;;;;;;115.70;37.78;;;4.00;99.90;;;;;;5113275;27;20116;-69
2022/03/15 06:11:48;;;;;;;103.75;35.30;;;4.00;99.90;;;;;;5120325;27;20028;-69
2022/03/15 06:14:13;;;;;;;104.45;37.95;;;4.00;99.90;;;;;;5099222;27;20379;-69
2022/03/15 06:16:39;;;;;;;124.72;39.67;;;4.10;99.90;;;;;;5114931;27;20056;-69
2022/03/15 06:19:04;;;;;;;118.07;40.22;;;4.10;99.90;;;;;;5112481;27;20031;-69
2022/03/15 06:21:30;;;;;;;122.35;39.33;;;4.10;99.90;;;;;;5113854;27;20058;-69
2022/03/15 06:23:55;;;;;;;120.95;40.92;;;4.20;99.90;;;;;;5114899;27;20073;-69
2022/03/15 06:26:21;;;;;;;115.38;41.22;;;4.20;99.90;;;;;;5113524;27;20434;-69
2022/03/15 06:28:47;;;;;;;113.22;38.45;;;4.30;99.90;;;;;;5112431;27;20113;-69
2022/03/15 06:31:14;;;;;;;126.75;41.42;;;4.30;99.90;;;;;;5128972;27;20110;-69
2022/03/15 06:33:42;;;;;;;156.45;47.00;;;4.30;99.90;;;;;;5132861;27;20035;-69
2022/03/15 06:36:09;;;;;;;144.93;44.42;;;4.40;99.90;;;;;;5114125;27;20458;-69
2022/03/15 06:38:34;;;;;;;141.68;43.72;;;4.40;99.90;;;;;;5114619;27;20529;-69
2022/03/15 06:41:00;;;;;;;146.13;45.55;;;4.50;99.90;;;;;;5112082;27;20111;-69
2022/03/15 06:43:25;;;;;;;136.50;44.95;;;4.60;99.90;;;;;;5116497;27;20122;-69
2022/03/15 06:45:51;;;;;;;142.05;47.55;;;4.60;99.90;;;;;;5097647;27;20121;-69
2022/03/15 06:48:16;;;;;;;155.20;46.53;;;4.60;99.90;;;;;;5114442;27;20046;-69
2022/03/15 06:50:42;;;;;;;148.57;47.08;;;4.70;99.90;;;;;;5105043;27;20516;-69
2022/03/15 06:53:07;;;;;;;140.45;46.58;;;4.80;99.90;;;;;;5114632;27;20066;-69
2022/03/15 06:55:34;;;;;;;135.32;45.88;;;4.80;99.90;;;;;;5114440;27;20477;-69
2022/03/15 06:58:00;;;;;;;149.68;48.58;;;4.90;99.90;;;;;;5130227;27;20038;-69
2022/03/15 07:00:26;;;;;;;144.15;47.65;;;4.90;99.90;;;;;;5113395;27;20450;-69
2022/03/15 07:02:51;;;;;;;140.38;46.85;;;5.00;99.90;;;;;;5114282;27;20081;-69
2022/03/15 07:05:17;;;;;;;140.32;46.42;;;5.10;99.90;;;;;;5114142;27;20126;-69
2022/03/15 07:07:42;;;;;;;136.95;46.58;;;5.10;99.90;;;;;;5112357;27;20057;-69
2022/03/15 07:10:10;;;;;;;132.52;47.67;;;5.20;99.90;;;;;;5101243;27;20039;-69
2022/03/15 07:12:36;;;;;;;149.48;48.10;;;5.20;99.90;;;;;;5114173;27;20157;-69
2022/03/15 07:15:03;;;;;;;137.63;46.40;;;5.30;99.90;;;;;;5113232;27;20046;-69
2022/03/15 07:17:32;;;;;;;134.05;47.72;;;5.30;99.90;;;;;;5109011;27;20166;-69
2022/03/15 07:19:59;;;;;;;139.25;48.10;;;5.40;99.90;;;;;;5111811;27;20079;-69
2022/03/15 07:22:25;;;;;;;134.80;47.90;;;5.50;99.90;;;;;;5113766;27;20051;-69
2022/03/15 07:24:51;;;;;;;144.45;48.83;;;5.50;99.90;;;;;;5094888;27;20036;-69
2022/03/15 07:27:17;;;;;;;150.32;49.55;;;5.50;99.90;;;;;;5113647;27;20550;-69
2022/03/15 07:29:43;;;;;;;144.50;49.72;;;5.60;99.90;;;;;;5113004;28;20071;-69
2022/03/15 07:32:08;;;;;;;145.45;50.25;;;5.70;99.90;;;;;;5113696;27;20054;-69
2022/03/15 07:34:34;;;;;;;147.32;51.28;;;5.70;99.90;;;;;;5112738;27;20041;-69
2022/03/15 07:36:59;;;;;;;148.45;50.15;;;5.80;99.90;;;;;;5094770;27;20051;-69
2022/03/15 07:39:25;;;;;;;140.20;49.67;;;5.80;99.90;;;;;;5112682;27;20039;-69
2022/03/15 07:41:51;;;;;;;154.75;51.80;;;5.90;99.90;;;;;;5108144;27;20043;-69
2022/03/15 07:44:17;;;;;;;155.52;51.95;;;5.90;99.90;;;;;;5113151;27;20397;-69
2022/03/15 07:46:48;;;;;;;148.13;51.67;;;6.00;99.90;;;;;;5113919;27;20035;-69
2022/03/15 07:49:16;;;;;;;142.60;51.80;;;6.10;99.90;;;;;;5112896;27;20065;-70
2022/03/15 07:51:41;;;;;;;146.05;50.90;;;6.20;99.90;;;;;;5101946;27;20430;-69
2022/03/15 07:54:07;;;;;;;146.60;51.28;;;6.20;99.90;;;;;;5096783;28;20192;-69
2022/03/15 07:56:32;;;;;;;144.77;51.25;;;6.30;99.90;;;;;;5113413;27;20046;-69
2022/03/15 07:58:58;;;;;;;143.73;51.97;;;6.40;99.90;;;;;;5112911;28;20039;-69
2022/03/15 08:01:23;;;;;;;149.45;51.85;;;6.40;99.90;;;;;;5112965;28;20035;-69
2022/03/15 08:03:49;;;;;;;134.90;51.30;;;6.50;99.90;;;;;;5113253;28;20043;-69
2022/03/15 08:06:15;;;;;;;147.32;53.85;;;6.50;99.90;;;;;;5130107;27;20046;-69
2022/03/15 08:08:42;;;;;;;158.15;53.72;;;6.60;99.90;;;;;;5112649;28;20043;-69
2022/03/15 08:11:07;;;;;;;143.30;51.90;;;6.70;99.90;;;;;;5113122;28;20549;-69
2022/03/15 08:13:37;;;;;;;144.85;50.58;;;6.70;99.90;;;;;;5112759;28;20127;-69
2022/03/15 08:16:04;;;;;;;138.75;50.85;;;6.80;99.90;;;;;;5113796;28;20053;-68
2022/03/15 08:18:30;;;;;;;150.00;52.67;;;6.90;99.90;;;;;;5111858;28;20124;-69
2022/03/15 08:20:58;;;;;;;147.85;52.08;;;6.80;99.90;;;;;;5112548;28;20438;-69
2022/03/15 08:23:23;;;;;;;141.45;50.13;;;6.90;99.90;;;;;;5111585;27;20135;-69
2022/03/15 08:25:49;;;;;;;134.65;50.45;;;7.00;99.90;;;;;;5096633;28;20091;-69
2022/03/15 08:28:14;;;;;;;146.30;52.40;;;7.00;99.90;;;;;;5108588;28;20027;-69
2022/03/15 08:30:40;;;;;;;141.10;50.53;;;7.00;99.90;;;;;;5112618;28;20099;-69
2022/03/15 08:33:05;;;;;;;141.38;52.10;;;7.10;99.90;;;;;;5112581;28;20189;-69
2022/03/15 08:35:31;;;;;;;135.95;49.22;;;7.20;99.90;;;;;;5111672;28;20038;-68
2022/03/15 08:37:57;;;;;;;134.75;51.05;;;7.10;99.90;;;;;;5104724;28;20062;-69
2022/03/15 08:40:23;;;;;;;130.90;49.63;;;7.20;99.90;;;;;;5109609;27;20054;-69
2022/03/15 08:42:49;;;;;;;138.65;50.20;;;7.40;99.90;;;;;;5100979;27;20402;-69
2022/03/15 08:45:15;;;;;;;133.88;49.92;;;7.40;99.90;;;;;;5116216;27;20035;-68
2022/03/15 08:47:41;;;;;;;136.95;51.00;;;7.30;99.90;;;;;;5116379;27;20039;-69
2022/03/15 08:50:08;;;;;;;142.00;52.35;;;7.40;99.90;;;;;;5114692;27;20054;-69
2022/03/15 08:52:35;;;;;;;138.85;50.83;;;7.40;99.90;;;;;;5116148;27;20048;-69
2022/03/15 08:55:00;;;;;;;128.93;50.92;;;7.40;99.90;;;;;;5117258;27;20046;-69
2022/03/15 08:57:26;;;;;;;140.77;51.47;;;7.40;99.90;;;;;;5106218;27;20051;-69
2022/03/15 08:59:51;;;;;;;138.50;51.35;;;7.50;99.90;;;;;;5108863;27;20039;-69
2022/03/15 09:02:17;;;;;;;133.27;50.53;;;7.50;99.90;;;;;;5110209;27;20055;-69
2022/03/15 09:04:43;;;;;;;137.35;50.58;;;7.60;99.90;;;;;;5116484;27;20038;-68
2022/03/15 09:07:10;;;;;;;132.40;50.97;;;7.60;99.90;;;;;;5098535;27;20377;-68
2022/03/15 09:09:36;;;;;;;145.43;52.53;;;7.60;99.90;;;;;;5115966;27;20505;-68
2022/03/15 09:12:03;;;;;;;139.95;52.25;;;7.60;99.90;;;;;;5112595;27;20035;-68
2022/03/15 09:14:28;;;;;;;144.10;51.83;;;7.70;99.90;;;;;;5116560;27;20046;-68
2022/03/15 09:16:54;;;;;;;136.05;51.90;;;7.80;99.90;;;;;;5116696;27;20031;-68
2022/03/15 09:19:20;;;;;;;121.53;50.17;;;7.80;99.90;;;;;;5105119;27;20461;-68
2022/03/15 09:21:46;;;;;;;129.18;49.85;;;7.90;99.90;;;;;;5113811;27;20053;-68
2022/03/15 09:24:11;;;;;;;132.40;50.55;;;7.90;99.90;;;;;;5116023;27;20066;-68
2022/03/15 09:26:37;;;;;;;130.95;50.67;;;8.00;99.90;;;;;;5133330;27;20080;-68
2022/03/15 09:29:03;;;;;;;125.22;50.83;;;8.10;99.90;;;;;;5113598;27;20043;-68
2022/03/15 09:31:29;;;;;;;120.97;48.42;;;8.20;99.90;;;;;;5115163;27;20363;-69
2022/03/15 09:33:54;;;;;;;122.97;50.53;;;8.20;99.90;;;;;;5115381;27;20099;-68
2022/03/15 09:36:20;;;;;;;132.45;50.72;;;8.30;99.90;;;;;;5098167;28;20500;-68
2022/03/15 09:38:45;;;;;;;119.50;48.33;;;8.40;99.90;;;;;;5113421;27;20050;-69
2022/03/15 09:41:15;;;;;;;122.55;48.60;;;8.50;99.90;;;;;;5126698;27;20070;-69
2022/03/15 09:43:45;;;;;;;128.02;49.30;;;8.50;99.90;;;;;;5091564;27;20070;-69
2022/03/15 09:46:12;;;;;;;124.32;48.55;;;8.70;99.90;;;;;;5109682;27;20031;-69
2022/03/15 09:48:40;;;;;;;129.15;49.05;;;8.70;99.90;;;;;;5109547;27;20030;-69
2022/03/15 09:51:07;;;;;;;121.05;48.30;;;8.80;99.90;;;;;;5110589;27;20478;-69
2022/03/15 09:53:37;;;;;;;127.93;48.85;;;8.90;99.90;;;;;;5114130;27;20070;-69
2022/03/15 09:56:03;;;;;;;109.18;47.67;;;9.00;99.90;;;;;;5114041;27;20039;-69
2022/03/15 09:58:29;;;;;;;121.95;48.15;;;9.10;99.90;;;;;;5114837;27;20043;-69
2022/03/15 10:00:56;;;;;;;119.60;48.25;;;9.20;99.90;;;;;;5109959;27;20083;-69
2022/03/15 10:03:21;;;;;;;111.93;45.55;;;9.20;99.90;;;;;;5092404;28;20097;-69
2022/03/15 10:05:49;;;;;;;116.88;46.53;;;9.30;99.90;;;;;;5093232;28;20446;-69
2022/03/15 10:08:15;;;;;;;109.85;45.78;;;9.30;99.90;;;;;;5093586;28;20067;-69
2022/03/15 10:10:41;;;;;;;111.57;46.03;;;9.40;99.90;;;;;;5092663;27;20561;-69
2022/03/15 10:13:07;;;;;;;110.85;46.30;;;9.50;99.90;;;;;;5110348;27;20126;-69
2022/03/15 10:15:33;;;;;;;104.55;45.95;;;9.50;99.90;;;;;;5101800;27;20043;-69
2022/03/15 10:18:06;;;;;;;114.88;45.25;;;9.60;99.90;;;;;;5093721;28;20051;-69
2022/03/15 10:20:40;;;;;;;108.93;44.65;;;9.70;99.90;;;;;;5094451;28;20047;-68
2022/03/15 10:23:09;;;;;;;109.57;45.75;;;9.70;99.90;;;;;;5094154;28;20184;-69
2022/03/15 10:25:36;;;;;;;104.65;46.05;;;9.70;99.90;;;;;;5094819;28;20040;-69
2022/03/15 10:28:04;;;;;;;109.32;46.00;;;9.80;99.90;;;;;;5094771;28;20390;-69
2022/03/15 10:30:31;;;;;;;101.68;43.40;;;9.80;99.90;;;;;;5093970;28;20050;-69
2022/03/15 10:32:57;;;;;;;104.47;43.92;;;9.90;99.90;;;;;;5113224;27;20043;-69
2022/03/15 10:35:29;;;;;;;103.15;44.25;;;9.90;99.90;;;;;;5115023;27;20047;-69
2022/03/15 10:37:55;;;;;;;;;;;10.00;99.90;;;;;;5098863;27;20042;-67
2022/03/15 10:40:36;;;;;;;108.93;43.25;;;10.10;99.90;;;;;;5097820;28;19915;-68
2022/03/15 10:43:04;;;;;;;101.57;42.55;;;10.10;99.90;;;;;;5094567;28;20052;-68
2022/03/15 10:45:30;;;;;;;110.25;42.50;;;10.20;99.90;;;;;;5094270;28;20506;-68
2022/03/15 10:47:56;;;;;;;99.05;42.58;;;10.30;99.90;;;;;;5094392;28;20047;-68
2022/03/15 10:50:23;;;;;;;101.03;41.42;;;10.40;99.90;;;;;;5104204;27;20512;-68
2022/03/15 10:52:49;;;;;;;105.22;42.08;;;10.60;99.90;;;;;;5094461;28;20043;-68
2022/03/15 10:55:17;;;;;;;101.57;40.90;;;10.70;99.90;;;;;;5093841;28;20040;-68
2022/03/15 10:58:01;;;;;;;85.20;39.80;;;10.80;99.90;;;;;;5111234;28;20044;-68
2022/03/15 11:00:33;;;;;;;91.15;38.58;;;11.00;99.90;;;;;;5093401;28;20040;-68
2022/03/15 11:02:59;;;;;;;95.80;38.10;;;11.20;99.90;;;;;;5112992;28;20482;-68
2022/03/15 11:05:39;;;;;;;85.90;37.50;;;11.30;99.90;;;;;;5093653;27;20038;-68
2022/03/15 11:08:14;;;;;;;79.13;36.72;;;11.50;99.90;;;;;;5094085;28;20047;-68
2022/03/15 11:10:41;;;;;;;84.60;35.47;;;11.60;99.90;;;;;;5093294;28;20124;-68
2022/03/15 11:13:12;;;;;;;84.85;35.67;;;11.50;99.90;;;;;;5108582;27;20043;-68
2022/03/15 11:15:42;;;;;;;93.13;37.70;;;11.60;99.90;;;;;;5093958;28;20075;-68
2022/03/15 11:18:10;;;;;;;86.40;37.65;;;11.70;99.90;;;;;;5094345;28;20044;-69
2022/03/15 11:20:38;;;;;;;86.70;35.90;;;11.70;99.90;;;;;;5099123;27;20055;-68
2022/03/15 11:23:07;;;;;;;85.97;36.92;;;11.80;99.90;;;;;;5114166;27;20076;-68
2022/03/15 11:25:54;;;;;;;81.25;35.17;;;11.80;99.90;;;;;;5108451;28;20047;-68
2022/03/15 11:28:25;;;;;;;79.90;33.45;;;11.90;99.90;;;;;;5092292;28;20126;-68
2022/03/15 11:30:53;;;;;;;85.55;36.78;;;11.90;99.90;;;;;;5092505;28;20371;-68
2022/03/15 11:33:19;;;;;;;83.68;37.65;;;12.00;99.90;;;;;;5093905;28;20039;-68
2022/03/15 11:35:45;;;;;;;84.07;36.60;;;12.00;99.90;;;;;;5093204;28;20383;-68
2022/03/15 11:38:13;;;;;;;83.78;35.88;;;12.00;99.90;;;;;;5092487;28;20049;-68
2022/03/15 11:40:40;;;;;;;82.95;32.53;;;12.00;99.90;;;;;;5092532;28;20051;-68
2022/03/15 11:43:24;;;;;;;78.55;34.05;;;12.00;99.90;;;;;;5092541;28;20039;-68
2022/03/15 11:45:58;;;;;;;84.85;36.97;;;12.00;99.90;;;;;;5093320;28;20039;-68
2022/03/15 11:49:26;;;;;;;78.32;33.05;;;12.00;99.90;;;;;;5093141;28;20067;-68
2022/03/15 11:52:20;;;;;;;79.15;33.10;;;11.90;99.90;;;;;;5011978;28;20081;-67
2022/03/15 11:55:10;;;;;;;72.88;32.75;;;11.80;99.90;;;;;;5093492;28;20043;-68
2022/03/15 11:57:49;;;;;;;77.38;33.83;;;11.70;99.90;;;;;;5098651;28;20039;-68
2022/03/15 12:00:47;;;;;;;75.93;33.88;;;11.80;99.90;;;;;;5113035;27;20046;-68
2022/03/15 12:03:18;;;;;;;76.30;33.47;;;11.70;99.90;;;;;;5113475;28;20065;-68
2022/03/15 12:05:48;;;;;;;76.40;33.37;;;11.60;99.90;;;;;;5131702;28;20043;-68
2022/03/15 12:08:20;;;;;;;77.95;33.25;;;11.60;99.90;;;;;;5113276;28;20034;-68
2022/03/15 12:10:56;;;;;;;86.65;33.55;;;11.60;99.90;;;;;;5113198;28;20096;-68
2022/03/15 12:13:45;;;;;;;78.78;34.20;;;11.60;99.90;;;;;;5094765;28;20047;-67
2022/03/15 12:16:22;;;;;;;72.43;33.38;;;11.50;99.90;;;;;;5093608;28;20049;-67
2022/03/15 12:19:00;;;;;;;66.93;30.08;;;11.60;99.90;;;;;;5096779;28;20039;-67
2022/03/15 12:21:26;;;;;;;72.22;29.73;;;11.60;99.90;;;;;;5096739;28;20050;-68
2022/03/15 12:23:54;;;;;;;67.95;29.75;;;11.50;99.90;;;;;;5097143;28;20044;-68
2022/03/15 12:26:28;;;;;;;78.40;32.88;;;11.60;99.90;;;;;;5103469;27;20039;-67
2022/03/15 12:29:12;;;;;;;69.20;31.73;;;11.50;99.90;;;;;;5115078;27;20043;-68
2022/03/15 12:31:41;;;;;;;72.57;30.77;;;11.60;99.90;;;;;;5097218;28;20067;-67
2022/03/15 12:34:16;;;;;;;64.90;29.85;;;11.60;99.90;;;;;;5096814;28;20452;-68